Time;durP1;ratioP1;P1;durP2;ratioP2;P2;SDS_P1;SDS_P2;PMS_P1;PMS_P2;Temp;Humidity;BMP_temperature;BMP_pressure;BME280_temperature;BME280_humidity;BME280_pressure;Samples;Min_cycle;Max_cycle;Signal;HPM_P1;HPM_P2
2022/01/30 00:01:46;;;;;;;;;;;6.60;99.90;;;;;;5094859;28;19908;-47
2022/01/30 00:04:12;;;;;;;;;;;6.60;99.90;;;;;;5094861;28;19915;-44
2022/01/30 00:06:38;;;;;;;;;;;6.60;99.90;;;;;;5077253;28;20369;-45
2022/01/30 00:09:06;;;;;;;;;;;6.70;99.90;;;;;;5094561;28;19912;-43
2022/01/30 00:11:35;;;;;;;;;;;6.60;99.90;;;;;;5094744;28;19912;-44
2022/01/30 00:14:02;;;;;;;;;;;6.60;99.90;;;;;;5094520;28;19948;-45
2022/01/30 00:16:32;;;;;;;;;;;6.50;99.90;;;;;;5095071;28;19953;-45
2022/01/30 00:19:24;;;;;;;;;;;6.50;99.90;;;;;;5094405;28;19917;-43
2022/01/30 00:21:49;;;;;;;;;;;6.50;99.90;;;;;;5094342;28;19934;-47
2022/01/30 00:24:26;;;;;;;;;;;6.40;99.90;;;;;;5076237;28;19915;-42
2022/01/30 00:26:51;;;;;;;;;;;6.40;99.90;;;;;;5094595;28;19912;-45
2022/01/30 00:29:17;;;;;;;;;;;6.40;99.90;;;;;;5094432;28;20316;-46
2022/01/30 00:31:43;;;;;;;;;;;6.50;99.90;;;;;;5094430;28;19959;-45
2022/01/30 00:34:08;;;;;;;;;;;6.40;99.90;;;;;;5094014;28;20349;-44
2022/01/30 00:36:34;;;;;;;;;;;6.40;99.90;;;;;;5094143;28;19983;-43
2022/01/30 00:39:00;;;;;;;;;;;6.40;99.90;;;;;;5094501;28;19916;-44
2022/01/30 00:41:26;;;;;;;;;;;6.40;99.90;;;;;;5094711;28;19908;-45
2022/01/30 00:43:52;;;;;;;;;;;6.40;99.90;;;;;;5094139;28;19908;-44
2022/01/30 00:46:17;;;;;;;;;;;6.40;99.90;;;;;;5093806;28;20253;-45
2022/01/30 00:48:43;;;;;;;;;;;6.40;99.90;;;;;;5075792;28;20354;-46
2022/01/30 00:51:08;;;;;;;;;;;6.50;99.90;;;;;;5094102;28;20401;-46
2022/01/30 00:53:34;;;;;;;;;;;6.50;99.90;;;;;;5075969;28;19908;-45
2022/01/30 00:55:59;;;;;;;;;;;6.50;99.90;;;;;;5093981;28;19908;-47
2022/01/30 00:58:25;;;;;;;;;;;6.50;99.90;;;;;;5094031;28;20368;-46
2022/01/30 01:00:51;;;;;;;;;;;6.50;99.90;;;;;;5094267;28;19947;-45
2022/01/30 01:03:17;;;;;;;;;;;6.50;99.90;;;;;;5093716;28;19908;-43
2022/01/30 01:05:43;;;;;;;;;;;6.50;99.90;;;;;;5094085;28;19915;-45
2022/01/30 01:08:17;;;;;;;;;;;6.50;99.90;;;;;;5094164;28;19912;-44
2022/01/30 01:10:59;;;;;;;;;;;6.60;99.90;;;;;;5093836;28;19912;-44
2022/01/30 01:24:07;;;;;;;;;;;6.50;99.90;;;;;;5093826;28;19912;-48
2022/01/30 01:26:33;;;;;;;;;;;6.50;99.90;;;;;;5093604;28;19908;-46
2022/01/30 01:28:58;;;;;;;;;;;6.60;99.90;;;;;;5092509;28;19919;-44
2022/01/30 01:31:24;;;;;;;;;;;6.60;99.90;;;;;;5093944;28;19912;-44
2022/01/30 01:36:22;;;;;;;;;;;6.60;99.90;;;;;;5093951;28;19931;-46
2022/01/30 01:38:48;;;;;;;;;;;6.60;99.90;;;;;;5093771;28;19915;-45
2022/01/30 01:41:17;;;;;;;;;;;6.60;99.90;;;;;;5093590;28;19908;-44
2022/01/30 01:43:43;;;;;;;;;;;6.50;99.90;;;;;;5093765;28;19961;-45
2022/01/30 01:46:15;;;;;;;;;;;6.50;99.90;;;;;;5093616;28;19995;-45
2022/01/30 01:48:42;;;;;;;;;;;6.50;99.90;;;;;;5093409;28;20336;-45
2022/01/30 01:51:16;;;;;;;;;;;6.60;99.90;;;;;;5093394;28;19916;-44
2022/01/30 01:53:41;;;;;;;;;;;6.60;99.90;;;;;;5093811;28;20270;-44
2022/01/30 01:56:08;;;;;;;;;;;6.60;99.90;;;;;;5093702;28;19915;-45
2022/01/30 01:58:33;;;;;;;;;;;6.50;99.90;;;;;;5093670;28;19908;-43
2022/01/30 02:01:01;;;;;;;;;;;6.50;99.90;;;;;;5093702;28;19931;-45
2022/01/30 02:03:27;;;;;;;;;;;6.50;99.90;;;;;;5093349;28;20362;-47
2022/01/30 02:05:56;;;;;;;;;;;6.60;99.90;;;;;;5093355;28;19915;-46
2022/01/30 02:08:29;;;;;;;;;;;6.50;99.90;;;;;;5093528;28;19908;-45
2022/01/30 02:26:50;;;;;;;;;;;6.40;99.90;;;;;;5097197;28;19966;-46
2022/01/30 02:29:17;;;;;;;;;;;6.40;99.90;;;;;;5096929;28;20373;-47
2022/01/30 02:31:43;;;;;;;;;;;6.50;99.90;;;;;;5096978;28;19916;-45
2022/01/30 02:34:08;;;;;;;;;;;6.50;99.90;;;;;;5096609;28;19954;-44
2022/01/30 02:36:46;;;;;;;;;;;6.40;99.90;;;;;;5096925;28;19928;-44
2022/01/30 02:39:11;;;;;;;;;;;6.40;99.90;;;;;;5096577;28;19962;-44
2022/01/30 02:41:38;;;;;;;;;;;6.50;99.90;;;;;;5096856;28;19911;-44
2022/01/30 02:44:31;;;;;;;;;;;6.40;99.90;;;;;;5096415;28;20308;-44
2022/01/30 02:46:53;;;;;;;;;;;6.40;99.90;;;;;;5095796;28;19908;-44
2022/01/30 02:51:52;;;;;;;;;;;6.30;99.90;;;;;;5096572;28;19912;-44
2022/01/30 02:54:18;;;;;;;;;;;6.40;99.90;;;;;;5096434;28;19908;-42
2022/01/30 02:56:44;;;;;;;;;;;6.40;99.90;;;;;;5096515;28;19953;-45
2022/01/30 02:59:10;;;;;;;;;;;6.50;99.90;;;;;;5096508;28;19999;-47
2022/01/30 03:01:36;;;;;;;;;;;6.40;99.90;;;;;;5096470;28;20303;-44
2022/01/30 03:04:02;;;;;;;;;;;6.40;99.90;;;;;;5096183;28;20004;-45
2022/01/30 03:06:27;;;;;;;;;;;6.40;99.90;;;;;;5096376;28;19994;-44
2022/01/30 03:08:53;;;;;;;;;;;6.30;99.90;;;;;;5096487;28;20007;-44
2022/01/30 03:11:19;;;;;;;;;;;6.30;99.90;;;;;;5096200;28;20358;-44
2022/01/30 03:13:44;;;;;;;;;;;6.30;99.90;;;;;;5095907;28;19908;-44
2022/01/30 03:16:10;;;;;;;;;;;6.40;99.90;;;;;;5096053;28;20363;-47
2022/01/30 03:18:38;;;;;;;;;;;6.30;99.90;;;;;;5096351;28;19990;-45
2022/01/30 03:21:04;;;;;;;;;;;6.30;99.90;;;;;;5096292;28;19931;-44
2022/01/30 03:23:30;;;;;;;;;;;6.30;99.90;;;;;;5095691;28;20351;-45
2022/01/30 03:25:59;;;;;;;;;;;6.30;99.90;;;;;;5096144;28;19924;-43
2022/01/30 03:28:26;;;;;;;;;;;6.30;99.90;;;;;;5095585;28;19999;-46
2022/01/30 03:30:55;;;;;;;;;;;6.30;99.90;;;;;;5096052;28;19916;-46
2022/01/30 03:33:21;;;;;;;;;;;6.30;99.90;;;;;;5095878;28;19912;-45
2022/01/30 03:35:46;;;;;;;;;;;6.30;99.90;;;;;;5095429;28;20377;-46
2022/01/30 03:38:14;;;;;;;;;;;6.30;99.90;;;;;;5077592;28;20389;-47
2022/01/30 03:40:39;;;;;;;;;;;6.30;99.90;;;;;;5095697;28;19915;-44
2022/01/30 03:43:05;;;;;;;;;;;6.30;99.90;;;;;;5095400;28;19915;-44
2022/01/30 03:45:30;;;;;;;;;;;6.20;99.90;;;;;;5095274;28;19915;-46
2022/01/30 03:47:56;;;;;;;;;;;6.20;99.90;;;;;;5095600;28;19908;-45
2022/01/30 03:50:22;;;;;;;;;;;6.20;99.90;;;;;;5095102;28;20308;-44
2022/01/30 03:52:48;;;;;;;;;;;6.20;99.90;;;;;;5095458;28;20002;-44
2022/01/30 03:55:13;;;;;;;;;;;6.20;99.90;;;;;;5095097;28;20385;-46
2022/01/30 03:57:39;;;;;;;;;;;6.20;99.90;;;;;;5095351;28;19908;-43
2022/01/30 04:00:05;;;;;;;;;;;6.20;99.90;;;;;;5095380;28;19912;-45
2022/01/30 04:02:31;;;;;;;;;;;6.20;99.90;;;;;;5095195;28;20307;-45
2022/01/30 04:04:56;;;;;;;;;;;6.20;99.90;;;;;;5095116;28;19916;-44
2022/01/30 04:07:23;;;;;;;;;;;6.20;99.90;;;;;;5095160;28;19908;-44
2022/01/30 04:09:48;;;;;;;;;;;6.20;99.90;;;;;;5094717;28;19965;-44
2022/01/30 04:12:14;;;;;;;;;;;6.20;99.90;;;;;;5076955;28;19916;-44
2022/01/30 04:14:40;;;;;;;;;;;6.20;99.90;;;;;;5095087;28;19908;-43
2022/01/30 04:17:07;;;;;;;;;;;6.30;99.90;;;;;;5094985;28;19920;-44
2022/01/30 04:19:32;;;;;;;;;;;6.30;99.90;;;;;;5094635;28;19998;-44
2022/01/30 04:21:58;;;;;;;;;;;6.30;99.90;;;;;;5094535;28;19992;-48
2022/01/30 04:24:23;;;;;;;;;;;6.30;99.90;;;;;;5094737;28;19920;-46
2022/01/30 04:26:49;;;;;;;;;;;6.30;99.90;;;;;;5094634;28;19916;-43
2022/01/30 04:29:15;;;;;;;;;;;6.30;99.90;;;;;;5094893;28;20247;-46
2022/01/30 04:31:42;;;;;;;;;;;6.30;99.90;;;;;;5093584;28;21602;-44
2022/01/30 04:34:08;;;;;;;;;;;6.30;99.90;;;;;;5094638;28;19909;-47
2022/01/30 04:36:40;;;;;;;;;;;6.20;99.90;;;;;;5094734;28;20422;-44
2022/01/30 04:39:34;;;;;;;;;;;6.30;99.90;;;;;;5094693;28;19908;-44
2022/01/30 04:56:48;;;;;;;;;;;6.20;99.90;;;;;;5094306;28;19915;-44
2022/01/30 04:58:45;;;;;;;;;;;6.20;99.90;;;;;;5083051;28;20007;-43
2022/01/30 05:01:18;;;;;;;;;;;6.10;99.90;;;;;;5094278;28;19908;-43
2022/01/30 05:06:16;;;;;;;;;;;6.10;99.90;;;;;;5094256;28;19931;-44
2022/01/30 05:08:41;;;;;;;;;;;6.20;99.90;;;;;;5094055;28;20359;-44
2022/01/30 05:11:09;;;;;;;;;;;6.20;99.90;;;;;;5076208;28;19918;-46
2022/01/30 05:13:37;;;;;;;;;;;6.10;99.90;;;;;;5094154;28;19951;-43
2022/01/30 05:16:03;;;;;;;;;;;6.10;99.90;;;;;;5094173;28;19961;-44
2022/01/30 05:18:29;;;;;;;;;;;6.20;99.90;;;;;;5093800;28;19908;-44
2022/01/30 05:20:55;;;;;;;;;;;6.20;99.90;;;;;;5093849;28;19932;-44
2022/01/30 05:23:21;;;;;;;;;;;6.20;99.90;;;;;;5093998;28;19915;-46
2022/01/30 05:25:47;;;;;;;;;;;6.20;99.90;;;;;;5094042;28;19999;-43
2022/01/30 05:28:14;;;;;;;;;;;6.20;99.90;;;;;;5093617;28;19908;-45
2022/01/30 05:30:40;;;;;;;;;;;6.20;99.90;;;;;;5093618;28;19916;-44
2022/01/30 05:33:05;;;;;;;;;;;6.30;99.90;;;;;;5093807;28;20317;-45
2022/01/30 05:35:31;;;;;;;;;;;6.30;99.90;;;;;;5093896;28;20261;-44
2022/01/30 05:37:57;;;;;;;;;;;6.30;99.90;;;;;;5093921;28;19908;-43
2022/01/30 05:40:23;;;;;;;;;;;6.30;99.90;;;;;;5093587;28;19908;-43
2022/01/30 05:42:49;;;;;;;;;;;6.20;99.90;;;;;;5093752;28;19931;-45
2022/01/30 05:45:26;;;;;;;;;;;6.20;99.90;;;;;;5093758;28;20402;-46
2022/01/30 05:47:57;;;;;;;;;;;6.00;99.90;;;;;;5093772;28;19908;-44
2022/01/30 05:50:23;;;;;;;;;;;6.00;99.90;;;;;;5093770;28;19912;-46
2022/01/30 05:52:49;;;;;;;;;;;5.90;99.90;;;;;;5093741;28;20006;-45
2022/01/30 05:55:14;;;;;;;;;;;5.90;99.90;;;;;;5093478;28;19954;-44
2022/01/30 05:57:40;;;;;;;;;;;5.90;99.90;;;;;;5095124;28;19915;-45
2022/01/30 06:00:06;;;;;;;;;;;5.90;99.90;;;;;;5096943;28;20331;-44
2022/01/30 06:02:32;;;;;;;;;;;5.80;99.90;;;;;;5097884;28;19990;-43
2022/01/30 06:04:58;;;;;;;;;;;5.80;99.90;;;;;;5097679;28;20389;-46
2022/01/30 06:07:29;;;;;;;;;;;5.70;99.90;;;;;;5097593;28;19908;-43
2022/01/30 06:09:54;;;;;;;;;;;5.70;99.90;;;;;;5097524;28;19920;-45
2022/01/30 06:12:20;;;;;;;;;;;5.70;99.90;;;;;;5097522;28;19913;-44
2022/01/30 06:14:46;;;;;;;;;;;5.70;99.90;;;;;;5097393;28;19931;-43
2022/01/30 06:17:13;;;;;;;;;;;5.60;99.90;;;;;;5097748;28;19908;-44
2022/01/30 06:19:38;;;;;;;;;;;5.60;99.90;;;;;;5097151;28;19961;-44
2022/01/30 06:22:04;;;;;;;;;;;5.60;99.90;;;;;;5097019;28;20418;-43
2022/01/30 06:24:29;;;;;;;;;;;5.50;99.90;;;;;;5097225;28;19999;-47
2022/01/30 06:26:55;;;;;;;;;;;5.50;99.90;;;;;;5097580;28;20013;-45
2022/01/30 06:29:20;;;;;;;;;;;5.50;99.90;;;;;;5093509;28;20274;-45
2022/01/30 06:31:46;;;;;;;;;;;5.60;99.90;;;;;;5086662;28;19912;-46
2022/01/30 06:34:11;;;;;;;;;;;5.50;99.90;;;;;;5076675;28;19909;-45
2022/01/30 06:36:37;;;;;;;;;;;5.60;99.90;;;;;;5091151;28;19916;-45
2022/01/30 06:39:03;;;;;;;;;;;5.60;99.90;;;;;;5097306;28;19915;-45
2022/01/30 06:41:28;;;;;;;;;;;5.60;99.90;;;;;;5096647;28;19908;-45
2022/01/30 06:43:54;;;;;;;;;;;5.60;99.90;;;;;;5096883;28;19908;-45
2022/01/30 06:46:19;;;;;;;;;;;5.60;99.90;;;;;;5096537;28;19915;-45
2022/01/30 06:48:45;;;;;;;;;;;5.60;99.90;;;;;;5082306;28;19912;-45
2022/01/30 06:51:10;;;;;;;;;;;5.60;99.90;;;;;;5076465;28;19948;-43
2022/01/30 06:53:36;;;;;;;;;;;5.60;99.90;;;;;;5076253;28;19975;-43
2022/01/30 06:56:02;;;;;;;;;;;5.60;99.90;;;;;;5076152;28;20286;-45
2022/01/30 06:58:27;;;;;;;;;;;5.60;99.90;;;;;;5075617;28;20378;-44
2022/01/30 07:00:53;;;;;;;;;;;5.60;99.90;;;;;;5075598;28;20310;-45
2022/01/30 07:03:18;;;;;;;;;;;5.70;99.90;;;;;;5075456;28;19912;-44
2022/01/30 07:05:44;;;;;;;;;;;5.60;99.90;;;;;;5090558;28;19915;-44
2022/01/30 07:08:09;;;;;;;;;;;5.70;99.90;;;;;;5095842;28;19914;-45
2022/01/30 07:10:37;;;;;;;;;;;5.70;99.90;;;;;;5086747;28;19926;-45
2022/01/30 07:13:02;;;;;;;;;;;5.70;99.90;;;;;;5093063;28;19959;-42
2022/01/30 07:15:28;;;;;;;;;;;5.70;99.90;;;;;;5059044;28;19920;-43
2022/01/30 07:17:53;;;;;;;;;;;5.70;99.90;;;;;;5085314;28;19958;-43
2022/01/30 07:20:19;;;;;;;;;;;5.70;99.90;;;;;;5096059;28;19908;-42
2022/01/30 07:22:44;;;;;;;;;;;5.70;99.90;;;;;;5093806;28;19923;-42
2022/01/30 07:25:10;;;;;;;;;;;5.80;99.90;;;;;;5091822;28;19962;-42
2022/01/30 07:27:36;;;;;;;;;;;5.80;99.90;;;;;;5077752;28;19912;-46
2022/01/30 07:30:03;;;;;;;;;;;5.80;99.90;;;;;;5075536;28;19939;-43
2022/01/30 07:32:28;;;;;;;;;;;5.90;99.90;;;;;;5077669;28;19924;-46
2022/01/30 07:34:54;;;;;;;;;;;5.90;99.90;;;;;;5057724;28;19919;-43
2022/01/30 07:37:20;;;;;;;;;;;5.90;99.90;;;;;;5081686;28;20370;-44
2022/01/30 07:39:45;;;;;;;;;;;5.90;99.90;;;;;;5078943;28;20420;-45
2022/01/30 07:42:11;;;;;;;;;;;5.90;99.90;;;;;;5076805;28;19920;-43
2022/01/30 07:44:37;;;;;;;;;;;5.90;99.90;;;;;;5082444;28;19912;-44
2022/01/30 07:47:02;;;;;;;;;;;6.00;99.90;;;;;;5089334;28;19954;-47
2022/01/30 07:49:28;;;;;;;;;;;6.00;99.90;;;;;;5068196;28;20267;-46
2022/01/30 07:51:54;;;;;;;;;;;5.90;99.90;;;;;;5086763;28;19923;-47
2022/01/30 07:54:20;;;;;;;;;;;5.90;99.90;;;;;;5081442;28;19912;-45
2022/01/30 07:56:45;;;;;;;;;;;6.00;99.90;;;;;;5088517;28;19978;-47
2022/01/30 07:59:12;;;;;;;;;;;6.00;99.90;;;;;;5095725;28;19908;-48
2022/01/30 08:01:38;;;;;;;;;;;5.90;99.90;;;;;;5095020;28;19953;-47
2022/01/30 08:04:06;;;;;;;;;;;5.90;99.90;;;;;;5095395;28;20007;-47
2022/01/30 08:06:33;;;;;;;;;;;6.10;99.90;;;;;;5076976;28;20383;-44
2022/01/30 08:08:58;;;;;;;;;;;6.10;99.90;;;;;;5095037;28;20350;-43
2022/01/30 08:11:24;;;;;;;;;;;5.90;99.90;;;;;;5094917;28;19964;-44
2022/01/30 08:13:49;;;;;;;;;;;5.80;99.90;;;;;;5095058;28;19909;-44
2022/01/30 08:16:15;;;;;;;;;;;5.80;99.90;;;;;;5094846;28;19912;-44
2022/01/30 08:18:40;;;;;;;;;;;5.70;99.90;;;;;;5094722;28;19908;-47
2022/01/30 08:21:06;;;;;;;;;;;5.50;99.90;;;;;;5094358;28;20010;-47
2022/01/30 08:23:33;;;;;;;;;;;5.30;99.90;;;;;;5095313;28;20346;-45
2022/01/30 08:25:59;;;;;;;;;;;5.20;99.90;;;;;;5095055;28;19966;-45
2022/01/30 08:28:25;;;;;;;;;;;5.30;99.90;;;;;;5076632;28;19912;-46
2022/01/30 08:30:51;;;;;;;;;;;5.40;99.90;;;;;;5076533;28;19999;-44
2022/01/30 08:33:16;;;;;;;;;;;5.40;99.90;;;;;;5076416;28;19976;-45
2022/01/30 08:35:42;;;;;;;;;;;5.50;99.90;;;;;;5094430;28;19908;-48
2022/01/30 08:38:10;;;;;;;;;;;5.60;99.90;;;;;;5094264;28;19915;-49
2022/01/30 08:40:35;;;;;;;;;;;5.80;99.90;;;;;;5094893;28;19912;-45
2022/01/30 08:43:02;;;;;;;;;;;5.80;99.90;;;;;;5094488;28;19908;-47
2022/01/30 08:45:27;;;;;;;;;;;6.00;99.90;;;;;;5094359;28;20001;-45
2022/01/30 08:47:53;;;;;;;;;;;6.20;99.90;;;;;;5094096;28;19952;-46
2022/01/30 08:50:20;;;;;;;;;;;6.20;99.90;;;;;;5094321;28;20010;-47
2022/01/30 08:52:45;;;;;;;;;;;6.30;99.90;;;;;;5094267;28;19916;-45
2022/01/30 08:55:12;;;;;;;;;;;6.30;99.90;;;;;;5093990;28;19915;-45
2022/01/30 08:57:38;;;;;;;;;;;6.40;99.90;;;;;;5094039;28;19916;-46
2022/01/30 09:00:05;;;;;;;;;;;6.40;99.90;;;;;;5094314;28;19908;-45
2022/01/30 09:02:30;;;;;;;;;;;6.30;99.90;;;;;;5094361;28;19914;-46
2022/01/30 09:04:56;;;;;;;;;;;6.40;99.90;;;;;;5094334;28;20003;-44
2022/01/30 09:07:21;;;;;;;;;;;6.50;99.90;;;;;;5094147;28;19954;-46
2022/01/30 09:09:47;;;;;;;;;;;6.40;99.90;;;;;;5093820;28;19960;-42
2022/01/30 09:12:13;;;;;;;;;;;6.60;99.90;;;;;;5093921;28;20003;-48
2022/01/30 09:14:40;;;;;;;;;;;6.70;99.90;;;;;;5093665;28;19915;-46
2022/01/30 09:17:12;;;;;;;;;;;6.80;99.90;;;;;;5075731;28;20259;-45
2022/01/30 09:19:38;;;;;;;;;;;7.00;99.90;;;;;;5094119;28;20342;-45
2022/01/30 09:22:04;;;;;;;;;;;7.00;99.90;;;;;;5093523;28;19955;-45
2022/01/30 09:24:29;;;;;;;;;;;6.90;99.90;;;;;;5093619;28;20279;-45
2022/01/30 09:26:54;;;;;;;;;;;7.10;99.90;;;;;;5094046;28;20270;-47
2022/01/30 09:29:22;;;;;;;;;;;7.00;99.90;;;;;;5093745;28;19912;-45
2022/01/30 09:31:48;;;;;;;;;;;7.30;99.90;;;;;;5096445;28;20262;-43
2022/01/30 09:34:14;;;;;;;;;;;7.70;99.90;;;;;;5100807;28;19915;-45
2022/01/30 09:36:39;;;;;;;;;;;6.90;99.90;;;;;;5100806;28;20346;-44
2022/01/30 09:39:05;;;;;;;;;;;6.80;99.90;;;;;;5082339;28;20343;-49
2022/01/30 09:41:32;;;;;;;;;;;6.70;99.90;;;;;;5100438;28;20317;-46
2022/01/30 09:44:00;;;;;;;;;;;6.40;99.90;;;;;;5100638;28;20377;-48
2022/01/30 09:46:26;;;;;;;;;;;6.30;99.90;;;;;;5100411;28;19998;-45
2022/01/30 09:48:52;;;;;;;;;;;6.20;99.90;;;;;;5100440;28;19999;-46
2022/01/30 09:51:18;;;;;;;;;;;6.20;99.90;;;;;;5100909;28;20003;-45
2022/01/30 09:53:43;;;;;;;;;;;6.20;99.90;;;;;;5100470;28;19912;-48
2022/01/30 09:56:09;;;;;;;;;;;6.30;99.90;;;;;;5099958;28;19939;-45
2022/01/30 09:58:34;;;;;;;;;;;6.40;99.90;;;;;;5100019;28;19912;-46
2022/01/30 10:01:01;;;;;;;;;;;6.40;99.90;;;;;;5099924;28;19912;-46
2022/01/30 10:03:29;;;;;;;;;;;6.30;99.90;;;;;;5099843;28;19908;-46
2022/01/30 10:06:03;;;;;;;;;;;6.30;99.90;;;;;;5099937;28;19920;-44
2022/01/30 10:08:29;;;;;;;;;;;6.20;99.90;;;;;;5100122;28;19954;-47
2022/01/30 10:10:59;;;;;;;;;;;6.30;99.90;;;;;;5099945;28;19989;-44
2022/01/30 10:13:29;;;;;;;;;;;6.40;99.90;;;;;;5100496;28;20101;-43
2022/01/30 10:15:56;;;;;;;;;;;6.20;99.90;;;;;;5100062;28;19908;-44
2022/01/30 10:18:23;;;;;;;;;;;6.20;99.90;;;;;;5100038;28;19908;-44
2022/01/30 10:20:48;;;;;;;;;;;6.40;99.90;;;;;;5100511;28;19908;-46
2022/01/30 10:23:14;;;;;;;;;;;6.50;99.90;;;;;;5099824;28;20279;-46
2022/01/30 10:25:49;;;;;;;;;;;6.60;99.90;;;;;;5099620;28;19920;-46
2022/01/30 10:28:14;;;;;;;;;;;6.90;99.90;;;;;;5100278;28;20041;-47
2022/01/30 10:30:47;;;;;;;;;;;7.10;99.90;;;;;;5099744;28;20390;-45
2022/01/30 10:33:14;;;;;;;;;;;6.80;99.90;;;;;;5099615;28;19919;-46
2022/01/30 10:35:45;;;;;;;;;;;6.40;99.90;;;;;;5099674;28;19999;-44
2022/01/30 10:38:21;;;;;;;;;;;6.40;99.90;;;;;;5099790;28;19994;-45
2022/01/30 10:40:56;;;;;;;;;;;6.30;99.90;;;;;;5099730;28;19908;-46
2022/01/30 10:43:21;;;;;;;;;;;6.50;99.90;;;;;;5097578;28;19908;-44
2022/01/30 10:45:47;;;;;;;;;;;6.80;99.90;;;;;;5096716;28;19914;-45
2022/01/30 10:48:17;;;;;;;;;;;7.00;99.90;;;;;;5096630;28;19908;-47
2022/01/30 10:50:45;;;;;;;;;;;7.30;99.90;;;;;;5096667;28;19912;-44
2022/01/30 10:53:18;;;;;;;;;;;7.10;99.90;;;;;;5096229;28;19934;-44
2022/01/30 10:55:44;;;;;;;;;;;7.40;99.90;;;;;;5078113;28;20070;-44
2022/01/30 10:58:11;;;;;;;;;;;7.50;99.90;;;;;;5096815;28;19916;-49
2022/01/30 11:00:38;;;;;;;;;;;7.50;99.90;;;;;;5096206;28;20282;-47
2022/01/30 11:03:03;;;;;;;;;;;7.60;99.90;;;;;;5096169;28;19909;-45
2022/01/30 11:05:29;;;;;;;;;;;7.70;99.90;;;;;;5095811;28;19915;-45
2022/01/30 11:07:56;;;;;;;;;;;7.50;99.90;;;;;;5096284;28;19912;-45
2022/01/30 11:10:25;;;;;;;;;;;7.60;99.90;;;;;;5095787;28;19912;-44
2022/01/30 11:13:07;;;;;;;;;;;7.50;99.90;;;;;;5096235;28;19957;-47
2022/01/30 11:15:43;;;;;;;;;;;7.50;99.90;;;;;;5096086;28;19920;-45
2022/01/30 11:18:11;;;;;;;;;;;7.70;99.90;;;;;;5096346;28;19908;-49
2022/01/30 11:20:36;;;;;;;;;;;8.00;99.90;;;;;;5096215;28;20369;-47
2022/01/30 11:23:02;;;;;;;;;;;7.80;99.90;;;;;;5095950;28;19993;-44
2022/01/30 11:25:35;;;;;;;;;;;7.70;99.90;;;;;;5095864;28;20362;-47
2022/01/30 11:28:03;;;;;;;;;;;7.60;99.90;;;;;;5095660;28;19950;-48
2022/01/30 11:30:30;;;;;;;;;;;7.60;99.90;;;;;;5095535;28;20378;-43
2022/01/30 11:32:57;;;;;;;;;;;7.30;99.90;;;;;;5095456;28;19912;-43
2022/01/30 11:35:22;;;;;;;;;;;7.00;99.90;;;;;;5095737;28;19914;-47
2022/01/30 11:37:48;;;;;;;;;;;6.90;99.90;;;;;;5077204;28;19998;-46
2022/01/30 11:40:15;;;;;;;;;;;6.90;99.90;;;;;;5095486;28;20270;-45
2022/01/30 11:42:49;;;;;;;;;;;7.00;99.90;;;;;;5095368;28;20282;-46
2022/01/30 11:45:14;;;;;;;;;;;7.20;99.90;;;;;;5095390;28;19909;-47
2022/01/30 11:47:51;;;;;;;;;;;7.20;99.90;;;;;;5095360;28;19915;-45
2022/01/30 11:50:17;;;;;;;;;;;7.30;99.90;;;;;;5095361;28;20022;-47
2022/01/30 11:52:49;;;;;;;;;;;7.60;99.90;;;;;;5077372;28;20363;-45
2022/01/30 11:55:37;;;;;;;;;;;7.80;99.90;;;;;;5094105;28;19952;-45
2022/01/30 11:58:03;;;;;;;;;;;7.80;99.90;;;;;;5095112;28;19908;-44
2022/01/30 12:00:36;;;;;;;;;;;7.80;99.90;;;;;;5095005;28;20403;-49
2022/01/30 12:03:21;;;;;;;;;;;7.80;99.90;;;;;;5094889;28;19912;-46
2022/01/30 12:05:47;;;;;;;;;;;7.90;99.90;;;;;;5094988;28;19908;-45
2022/01/30 12:08:31;;;;;;;;;;;7.90;99.90;;;;;;5093662;28;20309;-47
2022/01/30 12:10:56;;;;;;;;;;;7.90;99.90;;;;;;5094600;28;19916;-49
2022/01/30 12:13:42;;;;;;;;;;;7.80;99.90;;;;;;5094856;28;19965;-45
2022/01/30 12:16:28;;;;;;;;;;;8.00;99.90;;;;;;5076058;28;19930;-48
2022/01/30 12:18:53;;;;;;;;;;;8.10;99.90;;;;;;5094311;28;19915;-46
2022/01/30 12:21:19;;;;;;;;;;;8.20;99.90;;;;;;5094879;28;19908;-46
2022/01/30 12:23:44;;;;;;;;;;;8.20;99.90;;;;;;5094614;28;19915;-44
2022/01/30 12:26:14;;;;;;;;;;;8.10;99.90;;;;;;5094601;28;20274;-44
2022/01/30 12:28:44;;;;;;;;;;;8.00;99.90;;;;;;5094041;28;19961;-44
2022/01/30 12:31:33;;;;;;;;;;;8.20;99.90;;;;;;5094360;28;19919;-47
2022/01/30 12:34:06;;;;;;;;;;;8.10;99.90;;;;;;5094330;28;20007;-47
2022/01/30 12:36:35;;;;;;;;;;;8.00;99.90;;;;;;5093910;28;19908;-45
2022/01/30 12:39:10;;;;;;;;;;;8.30;99.90;;;;;;5076134;28;19908;-45
2022/01/30 12:41:36;;;;;;;;;;;8.30;99.90;;;;;;5093600;28;19912;-45
2022/01/30 12:44:05;;;;;;;;;;;8.40;99.90;;;;;;5093964;28;19916;-45
2022/01/30 12:46:45;;;;;;;;;;;8.40;99.90;;;;;;5093805;28;19953;-47
2022/01/30 12:49:16;;;;;;;;;;;8.30;99.90;;;;;;5093822;28;20377;-43
2022/01/30 12:51:43;;;;;;;;;;;8.30;99.90;;;;;;5094120;28;19912;-46
2022/01/30 12:54:09;;;;;;;;;;;8.80;99.90;;;;;;5093602;28;19908;-44
2022/01/30 12:56:38;;;;;;;;;;;8.60;99.90;;;;;;5093610;28;19909;-48
2022/01/30 12:59:07;;;;;;;;;;;8.80;99.90;;;;;;5093439;28;20296;-43
2022/01/30 13:01:38;;;;;;;;;;;8.80;99.90;;;;;;5092057;28;19914;-49
2022/01/30 13:04:09;;;;;;;;;;;8.60;99.90;;;;;;5093975;28;19922;-45
2022/01/30 13:07:01;;;;;;;;;;;8.60;99.90;;;;;;5092898;28;19908;-47
2022/01/30 13:09:27;;;;;;;;;;;8.50;99.90;;;;;;5089185;28;19918;-47
2022/01/30 13:11:54;;;;;;;;;;;8.20;99.90;;;;;;5093360;28;19973;-46
2022/01/30 13:14:20;;;;;;;;;;;8.20;99.90;;;;;;5093052;28;19914;-48
2022/01/30 13:16:46;;;;;;;;;;;8.40;99.90;;;;;;5093067;28;19912;-45
2022/01/30 13:19:14;;;;;;;;;;;8.50;99.90;;;;;;5093340;28;19908;-44
2022/01/30 13:21:43;;;;;;;;;;;8.60;99.90;;;;;;5075387;28;20358;-45
2022/01/30 13:24:09;;;;;;;;;;;8.60;99.90;;;;;;5092869;28;19908;-46
2022/01/30 13:26:39;;;;;;;;;;;8.50;99.90;;;;;;5093140;28;20081;-46
2022/01/30 13:29:27;;;;;;;;;;;8.40;99.90;;;;;;5093478;28;19908;-46
2022/01/30 13:31:57;;;;;;;;;;;8.70;99.90;;;;;;5093297;28;19912;-44
2022/01/30 13:34:22;;;;;;;;;;;8.60;99.90;;;;;;5093265;28;19908;-49
2022/01/30 13:36:54;;;;;;;;;;;8.80;99.90;;;;;;5093060;28;19915;-47
2022/01/30 13:39:26;;;;;;;;;;;8.60;99.90;;;;;;5093242;28;19908;-46
2022/01/30 13:42:02;;;;;;;;;;;8.40;99.90;;;;;;5093219;28;19966;-47
2022/01/30 13:44:51;;;;;;;;;;;8.50;99.90;;;;;;5093086;28;19908;-46
2022/01/30 13:47:18;;;;;;;;;;;8.70;99.90;;;;;;5093024;28;19916;-45
2022/01/30 13:49:44;;;;;;;;;;;8.60;99.90;;;;;;5074904;28;19919;-45
2022/01/30 13:52:10;;;;;;;;;;;8.50;99.90;;;;;;5093409;28;20324;-48
2022/01/30 13:54:39;;;;;;;;;;;8.60;99.90;;;;;;5092833;28;20270;-45
2022/01/30 13:57:06;;;;;;;;;;;8.60;99.90;;;;;;5092917;28;19908;-45
2022/01/30 13:59:32;;;;;;;;;;;8.40;99.90;;;;;;5074540;28;19908;-47
2022/01/30 14:02:06;;;;;;;;;;;8.50;99.90;;;;;;5092680;28;19994;-46
2022/01/30 14:04:32;;;;;;;;;;;8.60;99.90;;;;;;5092640;28;19916;-44
2022/01/30 14:07:01;;;;;;;;;;;8.80;99.90;;;;;;5091438;28;19912;-47
2022/01/30 14:09:42;;;;;;;;;;;8.40;99.90;;;;;;5074652;28;19912;-48
2022/01/30 14:12:08;;;;;;;;;;;8.40;99.90;;;;;;5092899;28;19912;-45
2022/01/30 14:14:37;;;;;;;;;;;8.30;99.90;;;;;;5092651;28;19948;-46
2022/01/30 14:17:04;;;;;;;;;;;8.30;99.90;;;;;;5092524;28;19908;-45
2022/01/30 14:19:34;;;;;;;;;;;8.20;99.90;;;;;;5095265;28;19908;-46
2022/01/30 14:22:21;;;;;;;;;;;8.20;99.90;;;;;;5096738;28;19912;-45
2022/01/30 14:24:47;;;;;;;;;;;8.20;99.90;;;;;;5096694;28;20272;-45
2022/01/30 14:27:13;;;;;;;;;;;8.00;99.70;;;;;;5078478;28;19947;-48
2022/01/30 14:29:40;;;;;;;;;;;7.70;99.90;;;;;;5096890;28;20341;-46
2022/01/30 14:32:09;;;;;;;;;;;7.50;99.90;;;;;;5096687;28;20382;-44
2022/01/30 14:34:35;;;;;;;;;;;7.60;99.90;;;;;;5096520;28;20359;-48
2022/01/30 14:37:03;;;;;;;;;;;7.40;99.90;;;;;;5096460;28;19962;-45
2022/01/30 14:39:29;;;;;;;;;;;7.50;99.90;;;;;;5096457;28;20266;-42
2022/01/30 14:41:55;;;;;;;;;;;7.60;99.90;;;;;;5096638;28;20003;-46
2022/01/30 14:44:20;;;;;;;;;;;7.50;99.90;;;;;;5077745;28;19947;-45
2022/01/30 14:46:46;;;;;;;;;;;7.50;99.90;;;;;;5096407;28;19908;-44
2022/01/30 14:49:12;;;;;;;;;;;7.50;99.90;;;;;;5096118;28;20270;-45
2022/01/30 14:51:37;;;;;;;;;;;7.50;99.90;;;;;;5094932;28;19923;-47
2022/01/30 14:54:03;;;;;;;;;;;7.40;99.90;;;;;;5096229;28;20338;-45
2022/01/30 14:56:29;;;;;;;;;;;7.30;99.90;;;;;;5096023;28;19909;-48
2022/01/30 14:58:54;;;;;;;;;;;7.30;99.90;;;;;;5095680;28;20385;-45
2022/01/30 15:01:20;;;;;;;;;;;7.40;99.90;;;;;;5095965;28;19978;-46
2022/01/30 15:03:45;;;;;;;;;;;7.30;99.90;;;;;;5095694;28;19912;-43
2022/01/30 15:06:11;;;;;;;;;;;7.10;99.90;;;;;;5096092;28;20010;-44
2022/01/30 15:08:37;;;;;;;;;;;7.10;99.90;;;;;;5095382;28;19915;-45
2022/01/30 15:11:02;;;;;;;;;;;7.10;99.90;;;;;;5095550;28;20003;-46
2022/01/30 15:13:28;;;;;;;;;;;7.00;99.90;;;;;;5095908;28;19912;-44
2022/01/30 15:15:56;;;;;;;;;;;6.90;99.90;;;;;;5095918;28;19908;-45
2022/01/30 15:18:23;;;;;;;;;;;6.90;99.90;;;;;;5096159;28;20003;-48
2022/01/30 15:20:48;;;;;;;;;;;6.80;99.90;;;;;;5095648;28;20378;-45
2022/01/30 15:23:14;;;;;;;;;;;6.70;99.90;;;;;;5095368;28;19916;-47